Time;durP1;ratioP1;P1;durP2;ratioP2;P2;SDS_P1;SDS_P2;PMS_P1;PMS_P2;Temp;Humidity;BMP_temperature;BMP_pressure;BME280_temperature;BME280_humidity;BME280_pressure;Samples;Min_cycle;Max_cycle;Signal;HPM_P1;HPM_P2
2023/10/22 00:02:07;;;;;;;5.50;5.00;;;;;;;21.70;43.33;94997.53;6161798;28;109174;-69
2023/10/22 00:05:10;;;;;;;5.55;5.05;;;;;;;21.70;43.45;94976.22;6170228;28;109632;-65
2023/10/22 00:08:13;;;;;;;6.10;5.50;;;;;;;21.70;43.33;94986.88;6180162;28;110179;-67
2023/10/22 00:11:16;;;;;;;6.10;5.50;;;;;;;21.70;43.66;94974.34;6186020;28;109200;-62
2023/10/22 00:14:19;;;;;;;5.50;5.00;;;;;;;21.70;43.70;94962.91;6186046;28;112917;-62
2023/10/22 00:17:24;;;;;;;5.63;5.13;;;;;;;21.70;43.21;94969.03;6174811;28;109160;-63
2023/10/22 00:20:27;;;;;;;6.63;6.03;;;;;;;21.70;43.39;94968.25;6184999;28;109296;-72
2023/10/22 00:23:30;;;;;;;6.28;5.68;;;;;;;21.72;43.95;94974.03;6185744;28;109115;-62
2023/10/22 00:26:34;;;;;;;5.90;5.40;;;;;;;21.70;43.23;94947.72;6185469;28;109359;-62
2023/10/22 00:29:37;;;;;;;6.10;5.60;;;;;;;21.70;43.37;94947.72;6174474;28;109219;-61
2023/10/22 00:32:41;;;;;;;6.15;5.60;;;;;;;21.71;43.40;94938.63;6185149;28;110263;-62
2023/10/22 00:35:55;;;;;;;6.00;5.50;;;;;;;21.71;43.37;94940.50;6185256;28;110105;-62
2023/10/22 00:38:58;;;;;;;5.90;5.40;;;;;;;21.72;43.55;94945.53;6180172;28;109276;-62
2023/10/22 00:42:01;;;;;;;6.45;5.85;;;;;;;21.73;43.85;94956.97;6179055;28;109669;-61
2023/10/22 00:45:05;;;;;;;5.93;5.43;;;;;;;21.72;43.59;94950.06;6185102;28;109409;-61
2023/10/22 00:48:11;;;;;;;6.30;5.80;;;;;;;21.72;43.65;94950.84;6185302;28;109071;-61
2023/10/22 00:51:15;;;;;;;6.30;5.80;;;;;;;21.71;43.30;94951.94;6176095;28;111957;-62
2023/10/22 00:54:20;;;;;;;6.50;5.90;;;;;;;21.71;43.80;94940.50;6184606;28;109215;-62
2023/10/22 00:57:24;;;;;;;6.00;5.40;;;;;;;21.70;43.49;94936.28;6185165;28;109375;-62
2023/10/22 01:00:27;;;;;;;6.20;5.60;;;;;;;21.72;43.82;94934.09;6185418;28;109257;-63
2023/10/22 01:03:32;;;;;;;6.03;5.53;;;;;;;21.72;43.38;94934.09;6174161;28;109090;-61
2023/10/22 01:06:36;;;;;;;6.60;6.00;;;;;;;21.72;43.47;94944.75;6184867;28;109288;-62
2023/10/22 01:09:39;;;;;;;6.00;5.50;;;;;;;21.72;43.96;94944.75;6183828;28;110201;-61
2023/10/22 01:12:43;;;;;;;6.10;5.60;;;;;;;21.72;43.77;94940.22;6184928;28;109826;-63
2023/10/22 01:15:46;;;;;;;6.20;5.60;;;;;;;21.71;43.51;94938.63;6173729;28;110697;-62
2023/10/22 01:18:51;;;;;;;6.00;5.50;;;;;;;21.71;43.42;94927.97;6184445;28;109005;-61
2023/10/22 01:21:54;;;;;;;6.30;5.70;;;;;;;21.72;43.60;94934.09;6184598;28;109705;-61
2023/10/22 01:24:58;;;;;;;6.05;5.55;;;;;;;21.71;43.77;94933.31;6177555;28;110407;-63
2023/10/22 01:28:01;;;;;;;5.97;5.43;;;;;;;21.72;43.76;94928.78;6182023;28;109386;-62
2023/10/22 01:31:08;;;;;;;6.32;5.72;;;;;;;21.71;43.76;94927.19;6184350;28;110152;-65
2023/10/22 01:34:12;;;;;;;5.97;5.47;;;;;;;21.74;43.43;94934.56;6184351;28;109119;-62
2023/10/22 01:37:15;;;;;;;5.80;5.30;;;;;;;21.74;43.91;94923.91;6173121;28;109124;-61
2023/10/22 01:40:19;;;;;;;5.63;5.13;;;;;;;21.73;43.43;94935.66;6183489;28;109127;-63
2023/10/22 01:43:22;;;;;;;5.80;5.30;;;;;;;21.74;43.25;94931.91;6184711;28;108798;-61
2023/10/22 01:46:26;;;;;;;5.60;5.00;;;;;;;21.73;43.64;94941.00;6184222;28;109111;-72
2023/10/22 01:49:29;;;;;;;6.10;5.50;;;;;;;21.73;43.28;94935.66;6173675;28;109957;-61
2023/10/22 01:52:32;;;;;;;5.80;5.30;;;;;;;21.72;43.74;94923.44;6183734;28;109309;-62
2023/10/22 01:55:37;;;;;;;5.60;5.10;;;;;;;21.72;43.28;94928.78;6183896;28;109933;-61
2023/10/22 01:58:40;;;;;;;6.10;5.60;;;;;;;21.72;43.38;94931.44;6178814;28;109568;-61
2023/10/22 02:01:43;;;;;;;5.90;5.40;;;;;;;21.71;43.70;94927.19;6178528;28;109589;-61
2023/10/22 02:04:46;;;;;;;6.00;5.50;;;;;;;21.72;43.75;94920.78;6183938;28;110476;-61
2023/10/22 02:07:49;;;;;;;5.93;5.32;;;;;;;21.73;43.36;94922.34;6183876;28;109551;-61
2023/10/22 02:10:54;;;;;;;5.60;5.10;;;;;;;21.72;43.72;94929.56;6173042;28;111366;-61
2023/10/22 02:13:58;;;;;;;5.80;5.30;;;;;;;21.72;43.65;94939.41;6183601;28;109047;-61
2023/10/22 02:17:01;;;;;;;5.80;5.20;;;;;;;21.73;43.31;94931.13;6185203;28;109636;-61
2023/10/22 02:20:08;;;;;;;5.40;4.90;;;;;;;21.73;43.87;94925.00;6187847;28;109257;-61
2023/10/22 02:23:12;;;;;;;5.80;5.30;;;;;;;21.72;43.92;94931.44;6177322;28;109476;-61
2023/10/22 02:26:16;;;;;;;5.38;4.88;;;;;;;21.72;43.83;94924.22;6187562;28;109100;-61
2023/10/22 02:29:19;;;;;;;5.30;4.80;;;;;;;21.70;43.42;94928.28;6187678;28;109084;-62
2023/10/22 02:32:23;;;;;;;5.37;4.87;;;;;;;21.72;43.58;94926.88;6187566;28;109510;-64
2023/10/22 02:35:26;;;;;;;6.10;5.60;;;;;;;21.72;43.56;94907.47;6178209;28;110165;-64
2023/10/22 02:38:29;;;;;;;5.90;5.40;;;;;;;21.72;43.49;94902.91;6187410;28;109548;-64
2023/10/22 02:41:33;;;;;;;5.82;5.32;;;;;;;21.71;43.53;94892.56;6187013;28;109146;-64
2023/10/22 02:44:36;;;;;;;6.00;5.18;;;;;;;21.70;43.38;94891.78;6178188;28;109353;-64
2023/10/22 02:47:40;;;;;;;5.22;4.80;;;;;;;21.72;43.44;94896.81;6162288;28;109325;-64
2023/10/22 02:50:43;;;;;;;5.30;4.80;;;;;;;21.71;43.28;94911.22;6170845;28;109104;-64
2023/10/22 02:53:46;;;;;;;5.67;5.13;;;;;;;21.71;43.67;94916.53;6162754;28;109278;-64
2023/10/22 02:56:51;;;;;;;5.40;4.90;;;;;;;21.71;43.64;94912.00;6169076;28;110375;-64
2023/10/22 02:59:54;;;;;;;5.80;5.30;;;;;;;21.71;43.86;94908.56;6187094;28;109221;-64
2023/10/22 03:02:57;;;;;;;5.07;4.68;;;;;;;21.72;43.40;94904.78;6187595;28;109009;-63
2023/10/22 03:06:00;;;;;;;5.20;4.70;;;;;;;21.69;43.89;94900.88;6186942;28;109162;-64
2023/10/22 03:09:05;;;;;;;5.50;5.00;;;;;;;21.70;43.46;94905.09;6177245;28;109287;-63
2023/10/22 03:12:11;;;;;;;4.78;4.32;;;;;;;21.70;43.74;94899.78;6186585;28;110198;-63
2023/10/22 03:15:15;;;;;;;5.30;4.90;;;;;;;21.72;43.40;94915.44;6186823;28;109276;-63
2023/10/22 03:18:18;;;;;;;4.90;4.50;;;;;;;21.71;43.21;94905.88;6181992;28;110171;-64
2023/10/22 03:21:24;;;;;;;5.20;4.70;;;;;;;21.70;43.63;94899.78;6182485;28;109055;-63
2023/10/22 03:24:27;;;;;;;5.55;5.05;;;;;;;21.71;43.40;94897.91;6187212;28;109274;-63
2023/10/22 03:27:33;;;;;;;5.50;5.00;;;;;;;21.71;43.46;94897.91;6186470;28;109178;-63
2023/10/22 03:30:37;;;;;;;4.60;4.20;;;;;;;21.70;43.40;94899.78;6177807;28;109825;-63
2023/10/22 03:33:41;;;;;;;5.15;4.65;;;;;;;21.71;43.75;94903.22;6186615;28;108980;-63
2023/10/22 03:36:44;;;;;;;5.10;4.70;;;;;;;21.70;43.78;94899.00;6187045;28;109837;-63
2023/10/22 03:39:50;;;;;;;4.88;4.47;;;;;;;21.70;43.74;94893.66;6186873;28;109259;-64
2023/10/22 03:42:54;;;;;;;5.60;5.10;;;;;;;21.69;43.37;94892.88;6175888;28;108917;-66
2023/10/22 03:45:58;;;;;;;5.28;4.78;;;;;;;21.69;43.49;94892.09;6187059;28;109100;-65
2023/10/22 03:49:01;;;;;;;5.20;4.70;;;;;;;21.70;43.63;94893.66;6186750;28;109067;-65
2023/10/22 03:52:05;;;;;;;4.78;4.32;;;;;;;21.69;43.34;94873.47;6181566;28;109041;-64
2023/10/22 03:55:08;;;;;;;4.70;4.30;;;;;;;21.69;43.96;94884.09;6180826;28;109120;-65
2023/10/22 03:58:13;;;;;;;5.03;4.63;;;;;;;21.68;43.49;94886.00;6186327;28;109868;-66
2023/10/22 04:01:16;;;;;;;5.20;4.70;;;;;;;21.69;43.55;94892.09;6186056;28;109181;-65
2023/10/22 04:04:19;;;;;;;4.67;4.27;;;;;;;21.70;43.82;94883.00;6175512;28;109426;-64
2023/10/22 04:07:23;;;;;;;5.40;4.90;;;;;;;21.69;43.78;94889.44;6185667;28;109100;-66
2023/10/22 04:10:26;;;;;;;4.80;4.40;;;;;;;21.68;43.41;94891.31;6186300;28;109051;-65
2023/10/22 04:13:30;;;;;;;4.50;4.10;;;;;;;21.69;43.74;94894.75;6184995;28;109241;-66
2023/10/22 04:16:33;;;;;;;5.20;4.70;;;;;;;21.67;43.57;94888.94;6174930;28;109097;-66
2023/10/22 04:19:36;;;;;;;5.10;4.60;;;;;;;21.68;43.46;94899.31;6185701;28;109296;-65
2023/10/22 04:22:42;;;;;;;4.70;4.20;;;;;;;21.68;43.61;94890.53;6185369;28;109220;-65
2023/10/22 04:25:46;;;;;;;4.80;4.40;;;;;;;21.68;43.89;94896.63;6185500;28;108927;-65
2023/10/22 04:28:50;;;;;;;4.75;4.35;;;;;;;21.67;43.29;94892.38;6175089;28;109633;-67
2023/10/22 04:31:53;;;;;;;4.93;4.43;;;;;;;21.68;43.95;94915.28;6184921;28;109092;-68
2023/10/22 04:34:57;;;;;;;4.80;4.40;;;;;;;21.68;43.29;94917.16;6185824;28;110291;-66
2023/10/22 04:38:00;;;;;;;4.90;4.40;;;;;;;21.68;43.83;94925.16;6179703;28;109145;-65
2023/10/22 04:41:10;;;;;;;4.67;4.17;;;;;;;21.67;43.62;94928.88;6180499;28;110798;-66
2023/10/22 04:44:14;;;;;;;4.80;4.40;;;;;;;21.67;43.79;94928.88;6184419;28;109131;-65
2023/10/22 04:47:18;;;;;;;4.60;4.10;;;;;;;21.66;43.69;94930.75;6184741;28;108928;-66
2023/10/22 04:50:21;;;;;;;4.93;4.53;;;;;;;21.66;43.84;94941.41;6174678;28;110137;-62
2023/10/22 04:53:24;;;;;;;5.00;4.60;;;;;;;21.67;43.90;94958.16;6184691;28;109512;-63
2023/10/22 04:56:28;;;;;;;4.60;4.20;;;;;;;21.68;43.79;94946.47;6184973;28;110534;-63
2023/10/22 04:59:32;;;;;;;5.10;4.60;;;;;;;21.67;43.60;94952.84;6184731;28;109256;-63
2023/10/22 05:02:36;;;;;;;5.05;4.55;;;;;;;21.67;43.38;94963.50;6174037;28;109646;-64
2023/10/22 05:05:39;;;;;;;4.80;4.32;;;;;;;21.67;43.27;94972.28;6185236;28;108968;-64
2023/10/22 05:08:42;;;;;;;4.70;4.30;;;;;;;21.67;43.87;94974.94;6184619;28;109247;-64
2023/10/22 05:11:45;;;;;;;4.70;4.30;;;;;;;21.66;43.61;94978.69;6179324;28;109039;-64
2023/10/22 05:14:50;;;;;;;4.72;4.30;;;;;;;21.67;43.53;94972.28;6177900;28;109326;-64
2023/10/22 05:17:55;;;;;;;4.70;4.30;;;;;;;21.67;43.45;94979.47;6184426;28;109637;-63
2023/10/22 05:21:01;;;;;;;4.60;4.20;;;;;;;21.68;43.71;94975.75;6184194;28;109200;-63
2023/10/22 05:24:06;;;;;;;5.00;4.50;;;;;;;21.67;43.21;94979.47;6148792;28;108842;-63
2023/10/22 05:27:09;;;;;;;4.80;4.30;;;;;;;21.67;43.86;94969.59;6171489;28;109071;-63
2023/10/22 05:30:15;;;;;;;4.68;4.22;;;;;;;21.66;43.60;94975.25;6182647;28;109447;-62
2023/10/22 05:33:18;;;;;;;4.63;4.22;;;;;;;21.67;43.39;94974.16;6180028;28;109112;-63
2023/10/22 05:36:22;;;;;;;4.72;4.22;;;;;;;21.67;43.34;94969.59;6174329;28;109015;-64
2023/10/22 05:39:25;;;;;;;4.72;4.32;;;;;;;21.67;43.38;94966.16;6184634;28;108995;-64
2023/10/22 05:42:28;;;;;;;5.00;4.50;;;;;;;21.67;43.70;94958.16;6184007;28;109068;-64
2023/10/22 05:45:33;;;;;;;4.38;3.97;;;;;;;21.67;43.60;94971.47;6182446;28;109500;-64
2023/10/22 05:48:36;;;;;;;4.80;4.40;;;;;;;21.66;43.36;94977.91;6177152;28;110468;-64
2023/10/22 05:51:39;;;;;;;4.82;4.43;;;;;;;21.66;43.46;94994.66;6183746;28;109074;-63
2023/10/22 05:54:43;;;;;;;4.70;4.30;;;;;;;21.68;43.24;95002.38;6184401;28;109267;-63
2023/10/22 05:57:46;;;;;;;5.20;4.70;;;;;;;21.67;43.80;94985.59;6174845;28;109100;-63
2023/10/22 06:00:51;;;;;;;4.50;4.10;;;;;;;21.68;43.28;94975.75;6183589;28;109198;-66
2023/10/22 06:03:54;;;;;;;4.90;4.30;;;;;;;21.68;43.35;94984.53;6184296;28;110058;-65
2023/10/22 06:06:57;;;;;;;4.68;4.28;;;;;;;21.67;43.20;94988.25;6184282;28;109035;-64
2023/10/22 06:10:00;;;;;;;4.95;4.55;;;;;;;21.68;43.58;95023.69;6173305;28;110082;-64
2023/10/22 06:13:03;;;;;;;4.50;4.10;;;;;;;21.67;43.62;95011.44;6184363;28;109293;-65
2023/10/22 06:16:09;;;;;;;4.57;4.18;;;;;;;21.68;43.76;95031.69;6183533;28;109302;-65
2023/10/22 06:19:13;;;;;;;4.60;4.20;;;;;;;21.68;43.60;95061.75;6183616;28;109134;-65
2023/10/22 06:22:17;;;;;;;5.30;4.80;;;;;;;21.67;43.59;95059.38;6172819;28;110182;-66
2023/10/22 06:25:20;;;;;;;4.50;4.10;;;;;;;21.67;43.53;95084.13;6183718;28;109151;-65
2023/10/22 06:28:23;;;;;;;4.60;4.20;;;;;;;21.69;43.47;95108.59;6183167;28;109428;-66
2023/10/22 06:31:27;;;;;;;4.40;4.00;;;;;;;21.69;43.52;95075.84;6177859;28;110241;-66
2023/10/22 06:34:31;;;;;;;4.38;3.97;;;;;;;21.67;43.51;95072.69;6178713;28;109154;-66
2023/10/22 06:37:34;;;;;;;4.50;4.10;;;;;;;21.68;43.39;95034.34;6183481;28;109182;-65
2023/10/22 06:40:37;;;;;;;5.00;4.50;;;;;;;21.68;43.41;95068.97;6183169;28;109579;-65
2023/10/22 06:43:40;;;;;;;4.60;4.00;;;;;;;21.67;43.38;95054.81;6173294;28;110381;-65
2023/10/22 06:46:45;;;;;;;4.40;4.00;;;;;;;21.67;43.56;95043.38;6182251;28;109147;-67
2023/10/22 06:49:48;;;;;;;4.38;3.97;;;;;;;21.66;43.36;95037.28;6183222;28;109300;-66
2023/10/22 06:52:51;;;;;;;4.60;4.20;;;;;;;21.67;43.80;95057.50;6182873;28;109490;-66
2023/10/22 06:55:54;;;;;;;4.70;4.30;;;;;;;21.68;43.71;95067.09;6173283;28;109179;-66
2023/10/22 06:58:57;;;;;;;4.43;4.00;;;;;;;21.69;43.88;95071.31;6182500;28;109129;-66
2023/10/22 07:02:02;;;;;;;4.50;4.10;;;;;;;21.69;43.52;95079.31;6183347;28;109339;-66
2023/10/22 07:05:10;;;;;;;4.65;4.25;;;;;;;21.69;43.76;95062.53;6184982;28;109145;-64
2023/10/22 07:08:15;;;;;;;4.65;4.25;;;;;;;21.70;43.70;95066.78;6181522;28;109913;-67
2023/10/22 07:11:18;;;;;;;4.28;3.88;;;;;;;21.70;43.75;95072.09;6187157;28;109997;-63
2023/10/22 07:14:22;;;;;;;4.57;4.10;;;;;;;21.72;43.32;95067.25;6187541;28;109974;-63
2023/10/22 07:17:26;;;;;;;4.65;4.10;;;;;;;21.72;43.48;95075.25;6176144;28;109511;-63
2023/10/22 07:20:29;;;;;;;4.40;4.00;;;;;;;21.77;43.62;95072.47;6186836;28;109142;-62
2023/10/22 07:23:32;;;;;;;4.90;4.40;;;;;;;21.80;43.22;95085.16;6186653;28;109219;-63
2023/10/22 07:26:36;;;;;;;4.40;4.00;;;;;;;21.82;43.24;95061.72;6186866;28;109254;-62
2023/10/22 07:29:39;;;;;;;4.70;4.30;;;;;;;21.86;43.06;95077.91;6176995;28;109604;-62
2023/10/22 07:32:43;;;;;;;4.70;4.20;;;;;;;21.86;43.43;95061.91;6185913;28;109334;-62
2023/10/22 07:35:53;;;;;;;4.30;3.90;;;;;;;21.86;43.38;95076.00;6186486;28;109055;-62
2023/10/22 07:38:56;;;;;;;4.45;4.05;;;;;;;21.88;43.22;95075.72;6186960;28;110149;-63
2023/10/22 07:42:00;;;;;;;4.30;3.90;;;;;;;21.88;43.19;95071.16;6176254;28;109263;-62
2023/10/22 07:45:04;;;;;;;4.43;4.03;;;;;;;21.88;43.51;95063.19;6186878;28;108843;-63
2023/10/22 07:48:08;;;;;;;4.73;4.33;;;;;;;21.91;43.51;95059.91;6185850;28;110266;-61
2023/10/22 07:51:13;;;;;;;4.70;4.30;;;;;;;21.89;43.10;95046.09;6178533;28;109045;-70
2023/10/22 07:54:16;;;;;;;4.97;4.57;;;;;;;21.89;42.95;95046.09;6185519;28;109171;-62
2023/10/22 07:57:19;;;;;;;4.40;4.00;;;;;;;21.91;43.02;95043.91;6186368;28;110147;-61
2023/10/22 08:00:22;;;;;;;4.22;3.90;;;;;;;21.92;42.88;95047.38;6186523;28;109303;-62
2023/10/22 08:03:29;;;;;;;5.40;4.90;;;;;;;21.94;43.28;95048.63;6175469;28;110021;-61
2023/10/22 08:06:32;;;;;;;4.80;4.40;;;;;;;21.95;43.36;95044.88;6186382;28;108788;-63
2023/10/22 08:09:35;;;;;;;5.10;4.60;;;;;;;21.99;43.17;95050.38;6185959;28;109235;-62
2023/10/22 08:12:38;;;;;;;4.60;4.20;;;;;;;22.01;42.98;95048.19;6186010;28;110206;-62
2023/10/22 08:15:42;;;;;;;4.60;4.20;;;;;;;22.06;43.22;95040.88;6174962;28;108963;-61
2023/10/22 08:18:46;;;;;;;4.60;4.20;;;;;;;22.11;43.27;95042.63;6184938;28;109136;-61
2023/10/22 08:21:49;;;;;;;4.90;4.50;;;;;;;22.14;43.15;95033.22;6185952;28;109137;-65
2023/10/22 08:24:52;;;;;;;4.70;4.30;;;;;;;22.15;42.59;95032.13;6181574;28;110783;-65
2023/10/22 08:27:56;;;;;;;4.80;4.40;;;;;;;22.14;42.68;95019.88;6180408;28;110745;-67
2023/10/22 08:31:00;;;;;;;4.63;4.22;;;;;;;22.13;42.81;95027.09;6185308;28;110042;-67
2023/10/22 08:34:05;;;;;;;5.10;4.60;;;;;;;22.12;43.08;95022.88;6185160;28;109967;-67
2023/10/22 08:37:08;;;;;;;5.00;4.60;;;;;;;22.11;42.67;95027.41;6174447;28;109225;-66
2023/10/22 08:40:12;;;;;;;4.80;4.40;;;;;;;22.13;42.77;95015.66;6185607;28;109390;-66
2023/10/22 08:43:17;;;;;;;5.20;4.70;;;;;;;22.11;42.98;95018.63;6185068;28;109058;-67
2023/10/22 08:46:21;;;;;;;5.87;5.27;;;;;;;22.13;42.98;95021.78;6184971;28;109044;-66
2023/10/22 08:49:25;;;;;;;5.10;4.70;;;;;;;22.13;42.65;95013.78;6174233;28;110621;-67
2023/10/22 08:52:29;;;;;;;5.50;5.00;;;;;;;22.16;43.10;95012.38;6184634;28;109420;-66
2023/10/22 08:55:33;;;;;;;5.88;5.38;;;;;;;22.18;42.95;95010.19;6184941;28;109409;-66
2023/10/22 08:58:36;;;;;;;5.80;5.30;;;;;;;22.18;42.75;95003.00;6183481;28;109250;-63
2023/10/22 09:01:39;;;;;;;5.60;5.10;;;;;;;22.21;42.92;95012.25;6177485;28;110218;-69
2023/10/22 09:04:44;;;;;;;6.57;5.97;;;;;;;22.17;43.13;94993.41;6170314;28;109277;-68
2023/10/22 09:07:51;;;;;;;14.55;13.15;;;;;;;22.22;43.97;95006.63;6185029;28;109351;-71
2023/10/22 09:10:54;;;;;;;13.45;9.50;;;;;;;22.26;43.67;95002.25;6175547;28;109141;-70
2023/10/22 09:13:58;;;;;;;14.07;11.35;;;;;;;22.21;43.42;95005.03;6168241;28;110063;-71
2023/10/22 09:17:15;;;;;;;18.85;15.73;;;;;;;22.17;44.03;95009.41;6159751;28;109292;-71
2023/10/22 09:20:23;;;;;;;19.17;16.55;;;;;;;22.22;44.07;95005.84;6171229;28;109962;-73
2023/10/22 09:23:28;;;;;;;13.65;6.30;;;;;;;22.37;41.74;94997.44;6163920;28;113117;-69
2023/10/22 09:26:42;;;;;;;12.00;7.68;;;;;;;22.39;42.86;94993.34;6160523;28;110801;-71
2023/10/22 09:29:49;;;;;;;16.60;10.03;;;;;;;22.39;43.48;95001.34;6177221;28;109015;-70
2023/10/22 09:32:52;;;;;;;16.92;10.13;;;;;;;22.44;43.26;95002.31;6158222;28;110579;-66
2023/10/22 09:36:03;;;;;;;11.98;7.13;;;;;;;22.62;42.27;94988.75;6161952;28;109243;-66
2023/10/22 09:39:07;;;;;;;12.43;6.60;;;;;;;22.63;42.27;94984.97;6165557;28;109610;-65
2023/10/22 09:42:11;;;;;;;11.35;5.60;;;;;;;22.81;41.07;94969.78;6178204;28;109063;-66
2023/10/22 09:45:20;;;;;;;14.32;7.25;;;;;;;22.85;40.63;94965.44;6157413;28;110927;-65
2023/10/22 09:48:27;;;;;;;17.07;8.27;;;;;;;22.77;40.99;94944.84;6170523;28;109576;-65
2023/10/22 09:51:35;;;;;;;14.93;6.80;;;;;;;22.85;41.04;94945.94;6162868;28;109293;-65
2023/10/22 09:54:39;;;;;;;14.85;8.65;;;;;;;22.79;41.41;94949.84;6168107;28;108851;-68
2023/10/22 09:57:44;;;;;;;16.10;7.63;;;;;;;22.75;41.86;94943.59;6169154;28;109132;-65
2023/10/22 10:00:47;;;;;;;12.60;7.80;;;;;;;22.69;42.22;94948.28;6172023;28;109367;-65
2023/10/22 10:03:58;;;;;;;12.27;8.43;;;;;;;22.68;41.82;94944.03;6169989;28;109072;-64
2023/10/22 10:07:04;;;;;;;15.05;7.40;;;;;;;22.65;41.89;94937.44;6155104;28;109704;-64
2023/10/22 10:10:09;;;;;;;15.25;8.40;;;;;;;22.64;42.36;94932.41;6170952;28;110521;-65
2023/10/22 10:13:13;;;;;;;12.40;7.60;;;;;;;22.65;42.20;94926.78;6172924;28;109191;-66
2023/10/22 10:16:16;;;;;;;14.07;7.60;;;;;;;22.69;41.85;94925.06;6173336;28;109344;-69
2023/10/22 10:19:22;;;;;;;15.10;7.60;;;;;;;22.73;41.31;94919.09;6159987;28;109979;-65
2023/10/22 10:22:40;;;;;;;17.33;8.00;;;;;;;22.75;41.00;94907.03;6166033;28;109112;-65
2023/10/22 10:25:47;;;;;;;14.90;6.90;;;;;;;22.74;41.10;94921.47;6157758;28;109114;-65
2023/10/22 10:28:50;;;;;;;12.15;7.13;;;;;;;22.74;41.52;94918.00;6169833;28;109358;-65
2023/10/22 10:31:55;;;;;;;15.68;7.50;;;;;;;22.73;40.94;94913.78;6149682;28;110222;-65
2023/10/22 10:35:02;;;;;;;14.60;7.45;;;;;;;22.70;40.89;94913.31;6175850;28;109244;-65
2023/10/22 10:38:28;;;;;;;15.15;6.53;;;;;;;22.73;40.57;94895.09;6165409;28;109907;-65
2023/10/22 10:41:53;;;;;;;14.25;6.90;;;;;;;22.70;41.06;94888.50;6168646;28;109049;-70
2023/10/22 10:45:08;;;;;;;13.93;6.20;;;;;;;22.76;40.36;94881.91;6183371;28;109043;-67
2023/10/22 10:48:47;;;;;;;12.87;6.03;;;;;;;22.71;40.76;94884.75;6181483;28;109264;-67
2023/10/22 10:51:59;;;;;;;15.65;6.68;;;;;;;22.68;41.12;94882.69;6182322;28;109069;-75
2023/10/22 10:55:09;;;;;;;14.00;6.68;;;;;;;22.66;41.10;94885.66;6169262;28;109059;-65
2023/10/22 10:58:12;;;;;;;16.67;6.47;;;;;;;22.65;41.18;94900.09;6174026;28;109256;-65
2023/10/22 11:01:16;;;;;;;13.85;6.22;;;;;;;22.61;41.27;94890.38;6170282;28;109095;-65
2023/10/22 11:04:19;;;;;;;11.93;6.45;;;;;;;22.60;41.86;94892.25;6171719;28;109284;-66
2023/10/22 11:07:23;;;;;;;15.70;5.93;;;;;;;22.65;41.65;94889.44;6161263;28;109637;-64
2023/10/22 11:10:30;;;;;;;14.98;6.90;;;;;;;22.77;42.36;94898.69;6175252;28;110184;-64
2023/10/22 11:13:33;;;;;;;12.40;5.90;;;;;;;22.82;42.02;94885.97;6173571;28;109206;-64
2023/10/22 11:16:51;;;;;;;16.70;5.80;;;;;;;22.82;42.20;94877.97;6175418;28;109482;-64
2023/10/22 11:19:54;;;;;;;12.73;6.20;;;;;;;22.82;42.39;94882.53;6164927;28;109262;-64
2023/10/22 11:22:58;;;;;;;13.67;6.00;;;;;;;22.83;42.68;94882.22;6166450;28;111124;-64
2023/10/22 11:26:02;;;;;;;12.85;5.60;;;;;;;22.86;42.09;94886.16;6161194;28;109327;-64
2023/10/22 11:29:05;;;;;;;12.20;5.85;;;;;;;22.87;42.72;94887.72;6164267;28;110238;-64
2023/10/22 11:32:13;;;;;;;13.25;5.60;;;;;;;22.87;42.53;94882.41;6162600;28;109285;-64
2023/10/22 11:35:16;;;;;;;12.00;5.90;;;;;;;22.87;42.98;94891.19;6168346;28;109277;-63
2023/10/22 11:38:22;;;;;;;11.30;5.40;;;;;;;22.89;42.90;94880.19;6160049;28;109306;-65
2023/10/22 11:41:27;;;;;;;11.38;5.35;;;;;;;22.88;42.68;94874.06;6167659;28;109327;-63
2023/10/22 11:44:33;;;;;;;13.15;5.80;;;;;;;22.88;42.94;94878.63;6175297;28;109830;-63
2023/10/22 11:47:36;;;;;;;9.05;5.40;;;;;;;22.88;42.56;94881.28;6175608;28;110218;-63
2023/10/22 11:50:40;;;;;;;10.10;5.55;;;;;;;22.88;42.74;94874.06;6175346;28;110550;-63
2023/10/22 11:53:45;;;;;;;13.27;5.70;;;;;;;22.87;43.07;94877.06;6184402;28;109313;-63
2023/10/22 11:56:50;;;;;;;10.75;5.32;;;;;;;22.88;42.87;94881.28;6178952;28;110168;-63
2023/10/22 11:59:53;;;;;;;11.30;5.80;;;;;;;22.86;43.43;94872.81;6178102;28;109076;-63
2023/10/22 12:02:56;;;;;;;12.90;6.45;;;;;;;22.86;43.21;94870.94;6175506;28;109373;-64
2023/10/22 12:05:59;;;;;;;13.93;6.30;;;;;;;22.87;43.37;94871.72;6161206;28;109181;-64
2023/10/22 12:09:03;;;;;;;10.82;5.88;;;;;;;22.87;43.44;94864.50;6183205;28;109747;-63
2023/10/22 12:12:08;;;;;;;11.77;6.30;;;;;;;22.88;43.63;94868.72;6171571;28;109647;-63
2023/10/22 12:15:12;;;;;;;11.80;6.50;;;;;;;22.89;43.85;94864.19;6159492;28;109124;-64
2023/10/22 12:18:16;;;;;;;11.38;5.80;;;;;;;22.89;43.92;94864.19;6169280;28;109339;-64
2023/10/22 12:21:19;;;;;;;11.98;6.22;;;;;;;22.88;43.76;94862.63;6192781;28;110130;-67
2023/10/22 12:24:22;;;;;;;10.17;5.30;;;;;;;22.89;44.13;94875.63;6184092;28;109484;-64
2023/10/22 12:27:31;;;;;;;9.10;5.60;;;;;;;22.86;43.81;94862.94;6193047;28;109122;-64
2023/10/22 12:30:34;;;;;;;10.70;5.87;;;;;;;22.88;43.88;94865.28;6180942;28;110038;-64
2023/10/22 12:33:38;;;;;;;12.13;6.57;;;;;;;22.91;43.99;94861.97;6164302;28;109026;-64
2023/10/22 12:36:41;;;;;;;11.82;6.60;;;;;;;22.91;44.35;94861.97;6170906;28;110382;-64
2023/10/22 12:39:44;;;;;;;11.90;6.50;;;;;;;22.92;44.02;94866.22;6185294;28;109292;-63
2023/10/22 12:42:49;;;;;;;8.57;6.22;;;;;;;22.93;44.39;94865.91;6184445;28;110050;-64
2023/10/22 12:45:52;;;;;;;9.90;5.60;;;;;;;22.94;44.27;94866.69;6181782;28;110407;-63
2023/10/22 12:48:56;;;;;;;8.98;5.80;;;;;;;22.98;45.03;94864.94;6174179;28;111293;-64
2023/10/22 12:51:59;;;;;;;14.50;6.50;;;;;;;22.95;44.49;94870.91;6166166;28;109200;-64
2023/10/22 12:55:02;;;;;;;12.93;6.90;;;;;;;22.91;44.40;94868.09;6174980;28;109513;-64
2023/10/22 12:58:07;;;;;;;12.80;7.10;;;;;;;22.89;44.08;94874.84;6160128;28;109066;-64
2023/10/22 13:01:10;;;;;;;13.38;7.72;;;;;;;22.88;44.03;94873.28;6171571;28;109354;-67
2023/10/22 13:04:13;;;;;;;13.20;7.57;;;;;;;22.87;43.66;94866.38;6176234;28;110085;-67
2023/10/22 13:07:16;;;;;;;13.75;8.68;;;;;;;22.87;44.01;94874.38;6167880;28;109285;-68
2023/10/22 13:10:19;;;;;;;14.33;9.50;;;;;;;22.89;44.29;94874.84;6167584;28;109077;-68
2023/10/22 13:13:24;;;;;;;12.75;8.77;;;;;;;22.88;44.20;94873.28;6167110;28;111680;-69
2023/10/22 13:16:28;;;;;;;13.80;9.00;;;;;;;22.87;44.51;94877.84;6172712;28;109413;-70
2023/10/22 13:19:31;;;;;;;12.45;8.10;;;;;;;22.91;43.39;94878.00;6171225;28;109258;-70
2023/10/22 13:22:34;;;;;;;20.15;8.20;;;;;;;22.92;43.71;94872.34;6160461;28;109280;-69
2023/10/22 13:25:37;;;;;;;19.40;7.87;;;;;;;23.02;41.93;94873.91;6173443;28;109170;-68
2023/10/22 13:28:42;;;;;;;18.02;8.07;;;;;;;23.03;42.99;94875.47;6181114;28;109307;-69
2023/10/22 13:31:45;;;;;;;16.23;8.43;;;;;;;22.97;43.06;94879.38;6162899;28;110358;-69
2023/10/22 13:34:48;;;;;;;20.02;9.48;;;;;;;22.95;43.73;94873.59;6177213;28;109589;-70
2023/10/22 13:37:52;;;;;;;22.45;9.70;;;;;;;22.93;43.45;94878.47;6172676;28;109714;-71
2023/10/22 13:40:55;;;;;;;16.60;8.70;;;;;;;22.92;43.60;94871.56;6172235;28;109839;-69
2023/10/22 13:43:59;;;;;;;16.27;8.77;;;;;;;22.88;43.61;94871.41;6171883;28;109507;-71
2023/10/22 13:47:03;;;;;;;15.52;8.48;;;;;;;22.89;43.66;94875.63;6172494;28;109249;-70
2023/10/22 13:50:08;;;;;;;13.77;8.70;;;;;;;22.92;43.61;94868.88;6177320;28;110200;-68
2023/10/22 13:53:13;;;;;;;15.18;8.32;;;;;;;22.91;43.74;94868.09;6182298;28;109462;-69
2023/10/22 13:56:16;;;;;;;16.93;8.47;;;;;;;22.91;43.90;94868.09;6167879;28;109869;-68
2023/10/22 13:59:20;;;;;;;14.65;7.80;;;;;;;22.93;44.52;94870.44;6178922;28;110310;-68
2023/10/22 14:02:24;;;;;;;13.88;7.60;;;;;;;22.93;43.64;94873.13;6173864;28;109123;-69
2023/10/22 14:05:27;;;;;;;15.45;8.80;;;;;;;22.97;44.60;94877.50;6164741;28;109547;-66
2023/10/22 14:08:30;;;;;;;16.90;9.90;;;;;;;22.99;44.61;94875.31;6172791;28;111745;-69
2023/10/22 14:11:34;;;;;;;17.65;9.50;;;;;;;23.03;44.70;94878.16;6178199;28;109121;-66
2023/10/22 14:14:39;;;;;;;17.13;9.30;;;;;;;23.01;44.71;94881.09;6180796;28;109245;-66